Time;durP1;ratioP1;P1;durP2;ratioP2;P2;SDS_P1;SDS_P2;PMS_P1;PMS_P2;Temp;Humidity;BMP_temperature;BMP_pressure;BME280_temperature;BME280_humidity;BME280_pressure;Samples;Min_cycle;Max_cycle;Signal;HPM_P1;HPM_P2
2023/04/28 00:01:12;;;;;;;1.45;0.73;;;;;;;;;;4916097;29;20055;-63
2023/04/28 00:03:41;;;;;;;4.05;1.15;;;;;;;;;;4921298;29;20067;-62
2023/04/28 00:06:10;;;;;;;2.80;1.20;;;;;;;;;;4919051;29;20097;-63
2023/04/28 00:08:39;;;;;;;2.08;0.95;;;;;;;;;;4920068;29;20063;-62
2023/04/28 00:11:10;;;;;;;4.32;1.23;;;;;;;;;;4920038;29;20052;-63
2023/04/28 00:13:38;;;;;;;4.07;1.85;;;;;;;;;;4922252;29;20137;-63
2023/04/28 00:16:07;;;;;;;1.52;1.05;;;;;;;;;;4921497;28;20099;-63
2023/04/28 00:18:35;;;;;;;2.10;1.08;;;;;;;;;;4914637;29;20080;-62
2023/04/28 00:21:03;;;;;;;2.05;0.77;;;;;;;;;;4920492;29;21115;-62
2023/04/28 00:23:32;;;;;;;7.95;1.25;;;;;;;;;;4920577;29;20050;-63
2023/04/28 00:26:02;;;;;;;1.63;0.90;;;;;;;;;;4921368;28;20396;-63
2023/04/28 00:28:30;;;;;;;3.78;0.90;;;;;;;;;;4920043;29;20441;-62
2023/04/28 00:31:02;;;;;;;2.80;1.20;;;;;;;;;;4923704;29;20413;-62
2023/04/28 00:33:30;;;;;;;3.03;1.25;;;;;;;;;;4919155;29;20534;-62
2023/04/28 00:36:02;;;;;;;2.08;0.82;;;;;;;;;;4918337;29;20623;-63
2023/04/28 00:38:30;;;;;;;2.25;2.05;;;;;;;;;;4914749;29;20040;-62
2023/04/28 00:40:58;;;;;;;1.90;1.45;;;;;;;;;;4921564;29;20138;-62
2023/04/28 00:43:28;;;;;;;1.35;1.00;;;;;;;;;;4917779;29;20047;-63
2023/04/28 00:45:56;;;;;;;0.75;0.57;;;;;;;;;;4922486;29;20056;-62
2023/04/28 00:48:25;;;;;;;1.98;1.08;;;;;;;;;;4924122;29;20051;-62
2023/04/28 00:50:53;;;;;;;0.68;0.68;;;;;;;;;;4917439;29;20347;-62
2023/04/28 00:53:21;;;;;;;1.38;0.80;;;;;;;;;;4923335;29;20051;-62
2023/04/28 00:55:51;;;;;;;2.45;1.00;;;;;;;;;;4918283;28;20051;-63
2023/04/28 00:58:20;;;;;;;1.90;1.45;;;;;;;;;;4931625;29;20043;-63
2023/04/28 01:00:49;;;;;;;0.60;0.52;;;;;;;;;;4920615;29;20071;-63
2023/04/28 01:03:18;;;;;;;1.90;1.02;;;;;;;;;;4948364;23;20055;-63
2023/04/28 01:05:46;;;;;;;1.25;1.13;;;;;;;;;;4938792;29;20193;-65
2023/04/28 01:08:15;;;;;;;8.63;0.80;;;;;;;;;;4938454;29;20070;-64
2023/04/28 01:10:45;;;;;;;1.75;0.82;;;;;;;;;;4939059;29;20060;-65
2023/04/28 01:13:13;;;;;;;2.47;0.80;;;;;;;;;;4938126;29;20110;-64
2023/04/28 01:15:41;;;;;;;1.10;0.52;;;;;;;;;;4938414;29;20367;-64
2023/04/28 01:18:12;;;;;;;1.27;0.90;;;;;;;;;;4937820;29;20483;-64
2023/04/28 01:20:40;;;;;;;0.57;0.57;;;;;;;;;;4938827;29;20078;-65
2023/04/28 01:23:12;;;;;;;2.75;1.05;;;;;;;;;;4937701;29;20048;-64
2023/04/28 01:25:42;;;;;;;5.38;1.10;;;;;;;;;;4938163;29;20047;-64
2023/04/28 01:28:11;;;;;;;3.47;0.80;;;;;;;;;;4938673;29;20103;-64
2023/04/28 01:30:39;;;;;;;0.60;0.60;;;;;;;;;;4938601;29;20051;-64
2023/04/28 01:33:08;;;;;;;1.23;0.80;;;;;;;;;;4938513;29;20051;-64
2023/04/28 01:35:36;;;;;;;1.48;1.00;;;;;;;;;;4938358;29;20044;-64
2023/04/28 01:38:05;;;;;;;2.22;2.03;;;;;;;;;;4933692;29;20086;-64
2023/04/28 01:40:33;;;;;;;1.00;0.77;;;;;;;;;;4930908;29;20130;-64
2023/04/28 01:43:03;;;;;;;1.48;1.13;;;;;;;;;;4931537;29;20050;-66
2023/04/28 01:45:31;;;;;;;2.08;0.80;;;;;;;;;;4932540;28;20070;-65
2023/04/28 01:47:59;;;;;;;2.35;0.68;;;;;;;;;;4932500;29;20485;-64
2023/04/28 01:50:28;;;;;;;0.70;0.70;;;;;;;;;;4935038;29;20043;-64
2023/04/28 01:52:56;;;;;;;1.40;0.70;;;;;;;;;;4935066;29;20422;-65
2023/04/28 01:55:24;;;;;;;0.55;0.52;;;;;;;;;;4936989;28;20047;-64
2023/04/28 01:57:53;;;;;;;2.83;1.02;;;;;;;;;;4932390;29;20075;-67
2023/04/28 02:00:22;;;;;;;0.80;0.80;;;;;;;;;;4935273;29;20505;-66
2023/04/28 02:02:51;;;;;;;3.25;0.60;;;;;;;;;;4932771;29;20060;-68
2023/04/28 02:05:20;;;;;;;1.67;0.70;;;;;;;;;;4933700;28;20052;-63
2023/04/28 02:07:48;;;;;;;1.50;0.60;;;;;;;;;;4931540;29;20135;-63
2023/04/28 02:10:16;;;;;;;1.05;0.93;;;;;;;;;;4933450;29;20400;-64
2023/04/28 02:12:45;;;;;;;0.20;0.20;;;;;;;;;;4937875;29;20704;-65
2023/04/28 02:15:13;;;;;;;1.15;0.52;;;;;;;;;;4933906;28;20066;-64
2023/04/28 02:17:43;;;;;;;0.73;0.60;;;;;;;;;;4931184;29;20142;-64
2023/04/28 02:20:13;;;;;;;0.70;0.57;;;;;;;;;;4933375;29;20079;-65
2023/04/28 02:22:41;;;;;;;0.63;0.40;;;;;;;;;;4934082;29;20070;-63
2023/04/28 02:25:10;;;;;;;1.15;0.77;;;;;;;;;;4932546;28;20048;-62
2023/04/28 02:27:38;;;;;;;0.50;0.50;;;;;;;;;;4932378;29;20051;-63
2023/04/28 02:30:07;;;;;;;1.55;0.85;;;;;;;;;;4935791;29;20139;-64
2023/04/28 02:32:35;;;;;;;0.40;0.40;;;;;;;;;;4930975;29;20051;-65
2023/04/28 02:35:06;;;;;;;0.68;0.40;;;;;;;;;;4931537;29;20420;-63
2023/04/28 02:37:34;;;;;;;0.30;0.30;;;;;;;;;;4932600;29;20492;-63
2023/04/28 02:40:02;;;;;;;0.65;0.30;;;;;;;;;;4935385;29;20062;-64
2023/04/28 02:42:30;;;;;;;0.40;0.40;;;;;;;;;;4930084;29;20044;-65
2023/04/28 02:44:59;;;;;;;0.57;0.57;;;;;;;;;;4931864;29;20055;-64
2023/04/28 02:47:27;;;;;;;0.45;0.45;;;;;;;;;;4932738;29;20500;-64
2023/04/28 02:49:55;;;;;;;8.38;0.68;;;;;;;;;;4934863;29;20055;-63
2023/04/28 02:52:25;;;;;;;2.35;0.60;;;;;;;;;;4934077;29;20043;-63
2023/04/28 02:54:56;;;;;;;0.50;0.30;;;;;;;;;;4932496;29;20043;-63
2023/04/28 02:57:25;;;;;;;2.85;0.82;;;;;;;;;;4931600;28;20086;-64
2023/04/28 02:59:53;;;;;;;1.55;0.73;;;;;;;;;;4935712;29;20055;-64
2023/04/28 03:02:22;;;;;;;1.42;0.47;;;;;;;;;;4928648;29;20055;-64
2023/04/28 03:04:50;;;;;;;1.40;0.55;;;;;;;;;;4935261;29;20078;-64
2023/04/28 03:07:19;;;;;;;1.42;0.90;;;;;;;;;;4927094;28;20052;-65
2023/04/28 03:09:48;;;;;;;0.50;0.50;;;;;;;;;;4935882;29;20047;-64
2023/04/28 03:12:17;;;;;;;0.57;0.40;;;;;;;;;;4931323;29;20062;-65
2023/04/28 03:14:45;;;;;;;0.50;0.47;;;;;;;;;;4934101;29;20060;-64
2023/04/28 03:17:14;;;;;;;0.38;0.38;;;;;;;;;;4933481;28;20063;-64
2023/04/28 03:19:42;;;;;;;1.23;0.60;;;;;;;;;;4930145;29;20074;-65
2023/04/28 03:22:10;;;;;;;0.45;0.45;;;;;;;;;;4934223;29;20056;-64
2023/04/28 03:24:39;;;;;;;0.40;0.30;;;;;;;;;;4930258;29;20058;-64
2023/04/28 03:27:08;;;;;;;0.40;0.40;;;;;;;;;;4932549;29;20066;-65
2023/04/28 03:29:36;;;;;;;0.57;0.40;;;;;;;;;;4932645;29;20060;-65
2023/04/28 03:32:05;;;;;;;1.10;1.00;;;;;;;;;;4934920;29;20052;-64
2023/04/28 03:34:33;;;;;;;0.30;0.30;;;;;;;;;;4926938;29;20059;-63
2023/04/28 03:37:02;;;;;;;3.25;0.60;;;;;;;;;;4933740;29;20065;-63
2023/04/28 03:39:30;;;;;;;1.65;0.70;;;;;;;;;;4928197;29;20043;-64
2023/04/28 03:41:58;;;;;;;0.47;0.40;;;;;;;;;;4932028;29;20062;-66
2023/04/28 03:44:28;;;;;;;0.60;0.55;;;;;;;;;;4932828;29;20565;-65
2023/04/28 03:46:56;;;;;;;0.68;0.52;;;;;;;;;;4933215;28;20103;-64
2023/04/28 03:49:25;;;;;;;1.17;0.30;;;;;;;;;;4934497;29;20142;-64
2023/04/28 03:51:53;;;;;;;0.90;0.63;;;;;;;;;;4927493;29;20565;-63
2023/04/28 03:54:22;;;;;;;0.40;0.40;;;;;;;;;;4932156;29;20625;-63
2023/04/28 03:56:50;;;;;;;0.93;0.50;;;;;;;;;;4932953;29;20416;-63
2023/04/28 03:59:18;;;;;;;0.32;0.32;;;;;;;;;;4931361;29;20138;-64
2023/04/28 04:01:48;;;;;;;0.98;0.38;;;;;;;;;;4930414;29;20055;-66
2023/04/28 04:04:16;;;;;;;0.40;0.35;;;;;;;;;;4929092;29;20133;-64
2023/04/28 04:06:46;;;;;;;1.30;0.68;;;;;;;;;;4927508;28;20059;-66
2023/04/28 04:09:14;;;;;;;0.40;0.32;;;;;;;;;;4928251;29;20062;-65
2023/04/28 04:11:42;;;;;;;0.93;0.50;;;;;;;;;;4930883;29;20070;-64
2023/04/28 04:14:10;;;;;;;5.65;0.68;;;;;;;;;;4934917;29;20051;-64
2023/04/28 04:16:40;;;;;;;5.97;0.88;;;;;;;;;;4926660;28;20075;-64
2023/04/28 04:19:09;;;;;;;0.30;0.30;;;;;;;;;;4929710;29;20385;-65
2023/04/28 04:21:38;;;;;;;0.60;0.50;;;;;;;;;;4928181;29;20056;-65
2023/04/28 04:24:06;;;;;;;0.60;0.57;;;;;;;;;;4926249;29;20048;-65
2023/04/28 04:26:35;;;;;;;0.52;0.35;;;;;;;;;;4927769;29;20103;-65
2023/04/28 04:29:03;;;;;;;0.95;0.80;;;;;;;;;;4934435;29;20059;-64
2023/04/28 04:31:31;;;;;;;0.98;0.80;;;;;;;;;;4936382;29;20130;-64
2023/04/28 04:34:00;;;;;;;0.57;0.47;;;;;;;;;;4934824;29;20130;-64
2023/04/28 04:36:31;;;;;;;1.15;0.45;;;;;;;;;;4927411;28;20051;-65
2023/04/28 04:39:00;;;;;;;0.88;0.40;;;;;;;;;;4938167;29;20213;-64
2023/04/28 04:41:28;;;;;;;1.58;0.45;;;;;;;;;;4935778;29;20551;-65
2023/04/28 04:43:56;;;;;;;1.67;0.80;;;;;;;;;;4938762;29;20051;-64
2023/04/28 04:46:25;;;;;;;1.38;1.15;;;;;;;;;;4930801;28;20237;-65
2023/04/28 04:48:54;;;;;;;1.67;0.60;;;;;;;;;;4932078;29;20059;-65
2023/04/28 04:51:22;;;;;;;1.27;0.70;;;;;;;;;;4938010;29;20061;-65
2023/04/28 04:53:52;;;;;;;0.57;0.47;;;;;;;;;;4931842;29;20503;-65
2023/04/28 04:56:23;;;;;;;0.80;0.70;;;;;;;;;;4935383;28;20130;-63
2023/04/28 04:58:51;;;;;;;2.75;0.63;;;;;;;;;;4938071;29;20392;-64
2023/04/28 05:01:19;;;;;;;2.20;0.57;;;;;;;;;;4942471;29;20134;-65
2023/04/28 05:03:48;;;;;;;0.75;0.60;;;;;;;;;;4932154;28;20090;-64
2023/04/28 05:06:16;;;;;;;0.77;0.55;;;;;;;;;;4937217;28;20058;-63
2023/04/28 05:08:45;;;;;;;2.17;0.70;;;;;;;;;;4935093;29;20062;-64
2023/04/28 05:11:15;;;;;;;2.78;0.82;;;;;;;;;;4935234;29;20071;-64
2023/04/28 05:13:43;;;;;;;0.88;0.75;;;;;;;;;;4937807;29;20062;-64
2023/04/28 05:16:11;;;;;;;1.33;0.82;;;;;;;;;;4932341;28;21220;-64
2023/04/28 05:18:40;;;;;;;0.52;0.52;;;;;;;;;;4935810;29;20040;-67
2023/04/28 05:21:10;;;;;;;1.45;0.60;;;;;;;;;;4936181;29;20143;-65
2023/04/28 05:23:38;;;;;;;0.70;0.50;;;;;;;;;;4935652;29;20201;-63
2023/04/28 05:26:07;;;;;;;0.85;0.57;;;;;;;;;;4940315;29;20046;-65
2023/04/28 05:28:36;;;;;;;1.35;0.70;;;;;;;;;;4937695;29;20066;-65
2023/04/28 05:31:05;;;;;;;0.93;0.82;;;;;;;;;;4936091;29;20055;-64
2023/04/28 05:33:33;;;;;;;1.05;0.57;;;;;;;;;;4938800;29;20059;-64
2023/04/28 05:36:01;;;;;;;2.47;1.80;;;;;;;;;;4938077;28;20050;-65
2023/04/28 05:38:32;;;;;;;1.55;0.80;;;;;;;;;;4938145;29;20504;-67
2023/04/28 05:41:01;;;;;;;5.38;1.08;;;;;;;;;;4936178;29;20517;-64
2023/04/28 05:43:30;;;;;;;3.30;0.73;;;;;;;;;;4937364;29;20166;-66
2023/04/28 05:46:00;;;;;;;0.82;0.70;;;;;;;;;;4935866;28;20178;-64
2023/04/28 05:48:28;;;;;;;1.42;0.95;;;;;;;;;;4936405;29;20079;-63
2023/04/28 05:50:56;;;;;;;0.80;0.60;;;;;;;;;;4933299;29;20050;-63
2023/04/28 05:53:25;;;;;;;0.95;0.70;;;;;;;;;;4936803;29;20147;-65
2023/04/28 05:55:54;;;;;;;1.25;1.00;;;;;;;;;;4940319;29;20145;-63
2023/04/28 05:58:22;;;;;;;1.45;0.65;;;;;;;;;;4935780;29;20051;-63
2023/04/28 06:00:50;;;;;;;0.95;0.60;;;;;;;;;;4938720;29;20048;-63
2023/04/28 06:03:20;;;;;;;1.23;0.85;;;;;;;;;;4936323;29;20055;-64
2023/04/28 06:05:49;;;;;;;2.05;0.70;;;;;;;;;;4940487;28;20129;-63
2023/04/28 06:08:17;;;;;;;1.70;0.75;;;;;;;;;;4938369;29;20056;-66
2023/04/28 06:10:46;;;;;;;0.47;0.45;;;;;;;;;;4936061;29;20054;-63
2023/04/28 06:13:14;;;;;;;2.17;0.90;;;;;;;;;;4933938;29;20721;-63
2023/04/28 06:15:42;;;;;;;0.52;0.52;;;;;;;;;;4933686;28;20059;-63
2023/04/28 06:18:11;;;;;;;0.70;0.57;;;;;;;;;;4931576;29;20062;-63
2023/04/28 06:20:41;;;;;;;1.20;0.63;;;;;;;;;;4934392;29;20051;-63
2023/04/28 06:23:09;;;;;;;0.98;0.82;;;;;;;;;;4934584;29;20147;-64
2023/04/28 06:25:37;;;;;;;2.13;0.50;;;;;;;;;;4929048;29;20536;-64
2023/04/28 06:28:06;;;;;;;2.65;0.93;;;;;;;;;;4934509;29;20074;-65
2023/04/28 06:30:35;;;;;;;4.85;0.93;;;;;;;;;;4936276;29;20049;-64
2023/04/28 06:33:04;;;;;;;0.85;0.63;;;;;;;;;;4928867;29;20047;-64
2023/04/28 06:35:34;;;;;;;1.33;0.70;;;;;;;;;;4928796;28;20055;-65
2023/04/28 06:38:04;;;;;;;0.50;0.50;;;;;;;;;;4926822;29;20820;-64
2023/04/28 06:40:32;;;;;;;1.55;0.73;;;;;;;;;;4931931;29;20159;-65
2023/04/28 06:43:01;;;;;;;1.33;0.43;;;;;;;;;;4934626;29;20119;-65
2023/04/28 06:45:29;;;;;;;0.57;0.38;;;;;;;;;;4933949;28;20056;-64
2023/04/28 06:47:58;;;;;;;1.10;0.40;;;;;;;;;;4937885;29;20116;-65
2023/04/28 06:50:26;;;;;;;0.77;0.43;;;;;;;;;;4929214;29;20043;-62
2023/04/28 06:52:54;;;;;;;3.03;0.73;;;;;;;;;;4936603;29;20055;-66
2023/04/28 06:55:24;;;;;;;1.63;0.40;;;;;;;;;;4935714;29;20043;-65
2023/04/28 06:57:53;;;;;;;9.60;1.77;;;;;;;;;;4936035;29;20214;-64
2023/04/28 07:00:21;;;;;;;4.40;1.02;;;;;;;;;;4934423;29;20047;-65
2023/04/28 07:02:49;;;;;;;12.30;2.05;;;;;;;;;;4933502;29;20087;-65
2023/04/28 07:05:18;;;;;;;3.15;1.25;;;;;;;;;;4936120;29;20074;-65
2023/04/28 07:07:46;;;;;;;0.60;0.57;;;;;;;;;;4934915;29;20055;-65
2023/04/28 07:10:15;;;;;;;1.48;0.70;;;;;;;;;;4935896;29;20047;-65
2023/04/28 07:12:44;;;;;;;0.25;0.25;;;;;;;;;;4934804;29;20051;-64
2023/04/28 07:15:13;;;;;;;4.90;1.10;;;;;;;;;;4935438;28;20065;-68
2023/04/28 07:17:41;;;;;;;1.20;0.45;;;;;;;;;;4939423;29;20151;-67
2023/04/28 07:20:10;;;;;;;0.80;0.35;;;;;;;;;;4934556;29;20071;-65
2023/04/28 07:22:38;;;;;;;0.75;0.70;;;;;;;;;;4936281;29;20044;-65
2023/04/28 07:25:07;;;;;;;0.50;0.40;;;;;;;;;;4934344;29;20056;-65
2023/04/28 07:27:35;;;;;;;1.05;0.70;;;;;;;;;;4936945;29;20066;-67
2023/04/28 07:30:06;;;;;;;0.30;0.30;;;;;;;;;;4935338;29;20043;-65
2023/04/28 07:32:53;;;;;;;0.40;0.40;;;;;;;;;;4932422;29;20126;-66
2023/04/28 07:35:22;;;;;;;1.02;0.32;;;;;;;;;;4932930;29;20047;-66
2023/04/28 07:37:51;;;;;;;0.50;0.30;;;;;;;;;;4936558;29;20059;-66
2023/04/28 07:40:19;;;;;;;0.38;0.30;;;;;;;;;;4934209;29;20228;-65
2023/04/28 07:42:48;;;;;;;0.20;0.20;;;;;;;;;;4936847;29;20159;-66
2023/04/28 07:45:17;;;;;;;0.30;0.22;;;;;;;;;;4936506;29;20043;-65
2023/04/28 07:47:46;;;;;;;2.60;0.45;;;;;;;;;;4936376;29;20439;-66
2023/04/28 07:50:15;;;;;;;0.70;0.60;;;;;;;;;;4938946;29;20162;-65
2023/04/28 07:52:43;;;;;;;0.30;0.30;;;;;;;;;;4934247;29;20516;-65
2023/04/28 07:55:11;;;;;;;0.98;0.50;;;;;;;;;;4938975;29;20481;-66
2023/04/28 07:57:41;;;;;;;0.52;0.40;;;;;;;;;;4938135;29;20233;-67
2023/04/28 08:00:10;;;;;;;1.40;0.57;;;;;;;;;;4934040;29;20489;-66
2023/04/28 08:02:40;;;;;;;0.43;0.20;;;;;;;;;;4932588;29;20059;-66
2023/04/28 08:05:08;;;;;;;0.40;0.40;;;;;;;;;;4936371;29;20138;-66
2023/04/28 08:07:38;;;;;;;4.05;0.40;;;;;;;;;;4932569;29;20043;-66
2023/04/28 08:10:07;;;;;;;0.22;0.22;;;;;;;;;;4935493;29;20177;-66
2023/04/28 08:12:36;;;;;;;0.28;0.20;;;;;;;;;;4933758;29;20140;-66
2023/04/28 08:15:04;;;;;;;0.63;0.30;;;;;;;;;;4933258;29;20438;-66
2023/04/28 08:17:33;;;;;;;1.83;0.52;;;;;;;;;;4935755;29;20130;-66
2023/04/28 08:20:03;;;;;;;0.52;0.40;;;;;;;;;;4931449;29;20054;-67
2023/04/28 08:22:31;;;;;;;0.70;0.30;;;;;;;;;;4932972;29;20099;-67
2023/04/28 08:24:59;;;;;;;1.27;0.35;;;;;;;;;;4934640;29;20482;-68
2023/04/28 08:27:28;;;;;;;0.38;0.28;;;;;;;;;;4934477;28;20059;-68
2023/04/28 08:29:56;;;;;;;0.30;0.30;;;;;;;;;;4933178;29;20051;-68
2023/04/28 08:32:24;;;;;;;5.68;0.70;;;;;;;;;;4933669;29;20061;-68
2023/04/28 08:34:53;;;;;;;8.15;0.45;;;;;;;;;;4934428;29;20055;-68
2023/04/28 08:37:23;;;;;;;0.93;0.77;;;;;;;;;;4935211;28;20059;-68
2023/04/28 08:40:00;;;;;;;0.80;0.50;;;;;;;;;;4926964;29;21192;-68
2023/04/28 08:42:30;;;;;;;1.75;0.50;;;;;;;;;;4934986;29;20103;-68
2023/04/28 08:44:59;;;;;;;1.52;0.65;;;;;;;;;;4934419;29;20047;-68
2023/04/28 08:47:32;;;;;;;0.45;0.30;;;;;;;;;;4930190;29;20071;-67
2023/04/28 08:50:03;;;;;;;0.50;0.20;;;;;;;;;;4930427;29;20047;-68
2023/04/28 08:52:33;;;;;;;3.63;0.50;;;;;;;;;;4934660;29;20461;-68
2023/04/28 08:55:02;;;;;;;1.40;0.75;;;;;;;;;;4934782;29;20170;-68
2023/04/28 08:57:34;;;;;;;0.20;0.20;;;;;;;;;;4934418;28;20102;-68
2023/04/28 09:00:02;;;;;;;0.35;0.30;;;;;;;;;;4932713;29;20131;-67
2023/04/28 09:02:31;;;;;;;0.73;0.43;;;;;;;;;;4930186;29;20526;-68
2023/04/28 09:05:00;;;;;;;0.38;0.30;;;;;;;;;;4937217;29;20055;-68
2023/04/28 09:07:29;;;;;;;4.13;0.63;;;;;;;;;;4935082;29;20131;-68
2023/04/28 09:10:15;;;;;;;7.55;0.40;;;;;;;;;;4931911;29;20898;-68
2023/04/28 09:12:45;;;;;;;0.35;0.32;;;;;;;;;;4923668;29;21614;-68
2023/04/28 09:15:26;;;;;;;0.65;0.55;;;;;;;;;;4935470;28;20130;-69
2023/04/28 09:17:54;;;;;;;0.22;0.22;;;;;;;;;;4933909;29;20059;-68
2023/04/28 09:20:23;;;;;;;0.88;0.38;;;;;;;;;;4932667;29;20055;-69
2023/04/28 09:22:52;;;;;;;1.00;0.32;;;;;;;;;;4933733;29;20052;-69
2023/04/28 09:25:21;;;;;;;0.47;0.40;;;;;;;;;;4934105;28;20054;-70
2023/04/28 09:27:51;;;;;;;0.40;0.30;;;;;;;;;;4936126;29;20048;-68
2023/04/28 09:30:20;;;;;;;0.17;0.13;;;;;;;;;;4933664;29;20118;-68
2023/04/28 09:33:04;;;;;;;0.30;0.30;;;;;;;;;;4938065;29;20070;-68
2023/04/28 09:35:42;;;;;;;1.10;0.40;;;;;;;;;;4933339;28;20040;-68
2023/04/28 09:38:10;;;;;;;0.65;0.40;;;;;;;;;;4935884;29;20043;-68
2023/04/28 09:40:50;;;;;;;0.30;0.30;;;;;;;;;;4932702;29;20051;-68
2023/04/28 09:43:27;;;;;;;0.93;0.50;;;;;;;;;;4934051;29;20079;-68
2023/04/28 09:45:56;;;;;;;1.45;0.40;;;;;;;;;;4936230;28;20071;-68
2023/04/28 09:48:28;;;;;;;0.10;0.10;;;;;;;;;;4937394;29;20740;-68
2023/04/28 09:50:58;;;;;;;1.13;0.38;;;;;;;;;;4941239;29;20130;-68
2023/04/28 09:53:26;;;;;;;2.90;0.85;;;;;;;;;;4935625;29;20059;-68
2023/04/28 09:55:55;;;;;;;0.22;0.22;;;;;;;;;;4935222;29;20476;-68
2023/04/28 09:58:24;;;;;;;0.13;0.13;;;;;;;;;;4932343;29;20139;-68
2023/04/28 10:00:55;;;;;;;0.98;0.43;;;;;;;;;;4940905;29;20062;-68
2023/04/28 10:03:24;;;;;;;1.05;0.50;;;;;;;;;;4931556;28;20066;-68
2023/04/28 10:05:57;;;;;;;0.88;0.40;;;;;;;;;;4935993;29;20087;-68
2023/04/28 10:08:27;;;;;;;0.20;0.20;;;;;;;;;;4935881;29;20064;-68
2023/04/28 10:10:56;;;;;;;3.92;0.98;;;;;;;;;;4934170;29;20102;-68
2023/04/28 10:13:25;;;;;;;0.43;0.20;;;;;;;;;;4937824;29;20051;-68
2023/04/28 10:15:56;;;;;;;0.13;0.13;;;;;;;;;;4930569;29;20114;-68
2023/04/28 10:18:26;;;;;;;0.20;0.20;;;;;;;;;;4936154;29;20554;-68
2023/04/28 10:20:57;;;;;;;0.63;0.20;;;;;;;;;;4934140;29;20467;-68
2023/04/28 10:23:46;;;;;;;0.20;0.13;;;;;;;;;;4933933;29;20079;-68
2023/04/28 10:26:17;;;;;;;0.77;0.30;;;;;;;;;;4935301;28;20074;-68
2023/04/28 10:28:47;;;;;;;0.88;0.30;;;;;;;;;;4936946;28;20059;-68
2023/04/28 10:31:19;;;;;;;0.70;0.38;;;;;;;;;;4935278;29;20473;-69
2023/04/28 10:33:49;;;;;;;0.45;0.30;;;;;;;;;;4931278;29;20081;-69
2023/04/28 10:36:41;;;;;;;2.20;0.40;;;;;;;;;;4932508;29;21194;-69
2023/04/28 10:39:10;;;;;;;0.32;0.32;;;;;;;;;;4903018;29;20528;-67
2023/04/28 10:41:39;;;;;;;0.20;0.20;;;;;;;;;;4933115;29;20061;-66
2023/04/28 10:44:31;;;;;;;0.20;0.20;;;;;;;;;;4934846;29;20063;-69
2023/04/28 10:47:02;;;;;;;0.10;0.10;;;;;;;;;;4908121;29;21140;-68
2023/04/28 10:49:46;;;;;;;1.08;0.45;;;;;;;;;;4935369;29;20043;-68
2023/04/28 10:52:29;;;;;;;0.40;0.30;;;;;;;;;;4932610;29;20713;-68
2023/04/28 10:55:16;;;;;;;0.10;0.10;;;;;;;;;;4932647;29;20491;-68
2023/04/28 10:58:13;;;;;;;0.05;0.05;;;;;;;;;;4919557;29;20535;-69
2023/04/28 11:00:42;;;;;;;0.20;0.20;;;;;;;;;;4936280;29;20763;-68
2023/04/28 11:03:32;;;;;;;0.35;0.35;;;;;;;;;;4934933;29;20051;-68
2023/04/28 11:06:15;;;;;;;2.35;0.30;;;;;;;;;;4931188;29;20051;-68
2023/04/28 11:08:44;;;;;;;1.52;0.47;;;;;;;;;;4931858;29;20047;-68
2023/04/28 11:11:13;;;;;;;0.95;0.30;;;;;;;;;;4935504;29;20548;-68
2023/04/28 11:13:42;;;;;;;0.35;0.20;;;;;;;;;;4937090;29;20065;-69
2023/04/28 11:16:10;;;;;;;0.20;0.10;;;;;;;;;;4931949;29;20059;-69
2023/04/28 11:18:53;;;;;;;0.28;0.28;;;;;;;;;;4933836;29;20059;-69
2023/04/28 11:21:23;;;;;;;0.77;0.30;;;;;;;;;;4934882;29;20135;-68
2023/04/28 11:23:52;;;;;;;0.65;0.22;;;;;;;;;;4937434;29;20110;-68
2023/04/28 11:26:22;;;;;;;0.82;0.40;;;;;;;;;;4933989;28;20058;-69
2023/04/28 11:28:51;;;;;;;0.80;0.65;;;;;;;;;;4934173;29;20043;-68
2023/04/28 11:31:22;;;;;;;0.68;0.43;;;;;;;;;;4935803;29;20044;-68
2023/04/28 11:33:54;;;;;;;0.88;0.38;;;;;;;;;;4934976;29;20053;-68
2023/04/28 11:36:23;;;;;;;0.73;0.30;;;;;;;;;;4932688;28;20107;-69
2023/04/28 11:38:52;;;;;;;0.50;0.22;;;;;;;;;;4932515;29;20424;-69
2023/04/28 11:41:20;;;;;;;0.32;0.28;;;;;;;;;;4933866;29;20059;-69
2023/04/28 11:43:48;;;;;;;0.15;0.15;;;;;;;;;;4934090;29;20075;-69
2023/04/28 11:46:17;;;;;;;0.22;0.22;;;;;;;;;;4932358;29;20086;-69
2023/04/28 11:48:46;;;;;;;0.47;0.20;;;;;;;;;;4936100;29;20520;-67
2023/04/28 11:51:33;;;;;;;0.52;0.22;;;;;;;;;;4930659;29;20079;-67
2023/04/28 11:54:02;;;;;;;0.10;0.10;;;;;;;;;;4932574;29;20091;-67
2023/04/28 11:56:31;;;;;;;1.08;0.28;;;;;;;;;;4928256;29;20126;-69
2023/04/28 11:59:03;;;;;;;0.05;0.05;;;;;;;;;;4932887;29;20054;-69
2023/04/28 12:01:32;;;;;;;0.03;0.03;;;;;;;;;;4933651;29;20514;-67
2023/04/28 12:04:00;;;;;;;0.15;0.15;;;;;;;;;;4933463;29;20110;-67
2023/04/28 12:06:29;;;;;;;1.02;0.20;;;;;;;;;;4930433;29;20485;-67
2023/04/28 12:09:03;;;;;;;0.13;0.13;;;;;;;;;;4929025;29;20052;-67
2023/04/28 12:11:31;;;;;;;0.20;0.17;;;;;;;;;;4933765;29;20134;-67
2023/04/28 12:14:07;;;;;;;0.10;0.10;;;;;;;;;;4929920;29;20052;-66
2023/04/28 12:16:42;;;;;;;0.70;0.28;;;;;;;;;;4930931;29;20140;-66
2023/04/28 12:19:10;;;;;;;1.48;0.28;;;;;;;;;;4927617;29;20059;-67
2023/04/28 12:21:39;;;;;;;0.55;0.50;;;;;;;;;;4938571;29;20122;-67
2023/04/28 12:24:20;;;;;;;0.25;0.20;;;;;;;;;;4934350;29;21186;-67
2023/04/28 12:26:49;;;;;;;0.90;0.20;;;;;;;;;;4926845;28;20039;-67
2023/04/28 12:29:37;;;;;;;0.30;0.10;;;;;;;;;;4932671;29;20090;-67
2023/04/28 12:32:06;;;;;;;0.73;0.63;;;;;;;;;;4928469;29;20044;-67
2023/04/28 12:34:34;;;;;;;0.82;0.60;;;;;;;;;;4928096;29;20051;-66
2023/04/28 12:37:04;;;;;;;0.38;0.35;;;;;;;;;;4933095;28;20056;-67
2023/04/28 12:39:35;;;;;;;0.10;0.10;;;;;;;;;;4930801;29;20048;-67
2023/04/28 12:42:06;;;;;;;0.25;0.20;;;;;;;;;;4933681;29;20414;-67
2023/04/28 12:44:35;;;;;;;0.63;0.35;;;;;;;;;;4926848;29;20051;-67
2023/04/28 12:47:04;;;;;;;2.20;0.77;;;;;;;;;;4925662;29;20166;-67
2023/04/28 12:49:33;;;;;;;0.15;0.15;;;;;;;;;;4932220;29;20391;-67
2023/04/28 12:52:02;;;;;;;0.10;0.10;;;;;;;;;;4934871;29;20090;-67
2023/04/28 12:54:30;;;;;;;0.30;0.30;;;;;;;;;;4928816;29;20048;-67
2023/04/28 12:57:00;;;;;;;0.82;0.20;;;;;;;;;;4932490;28;20861;-67
2023/04/28 12:59:28;;;;;;;0.93;0.35;;;;;;;;;;4933851;29;20062;-67
2023/04/28 13:01:57;;;;;;;0.60;0.60;;;;;;;;;;4934813;29;20051;-67
2023/04/28 13:04:26;;;;;;;1.02;0.40;;;;;;;;;;4935208;29;20062;-67
2023/04/28 13:06:57;;;;;;;0.25;0.20;;;;;;;;;;4932208;28;20142;-67
2023/04/28 13:09:26;;;;;;;0.20;0.10;;;;;;;;;;4936121;29;20051;-68
2023/04/28 13:11:54;;;;;;;0.47;0.30;;;;;;;;;;4936249;29;20051;-68
2023/04/28 13:14:24;;;;;;;0.47;0.38;;;;;;;;;;4934599;29;20043;-67
2023/04/28 13:16:52;;;;;;;0.45;0.30;;;;;;;;;;4935091;29;20486;-67
2023/04/28 13:19:21;;;;;;;0.22;0.22;;;;;;;;;;4935927;29;20923;-67
2023/04/28 13:21:49;;;;;;;0.30;0.30;;;;;;;;;;4935164;29;20186;-67
2023/04/28 13:24:18;;;;;;;0.22;0.22;;;;;;;;;;4931904;29;20536;-67
2023/04/28 13:26:46;;;;;;;0.10;0.10;;;;;;;;;;4932217;29;20047;-67
2023/04/28 13:29:14;;;;;;;0.10;0.10;;;;;;;;;;4934752;29;20523;-67
2023/04/28 13:31:44;;;;;;;1.55;0.25;;;;;;;;;;4932158;29;20523;-67
2023/04/28 13:34:14;;;;;;;0.90;0.20;;;;;;;;;;4930154;29;20088;-67
2023/04/28 13:36:44;;;;;;;0.10;0.10;;;;;;;;;;4936348;28;20064;-67
2023/04/28 13:39:13;;;;;;;0.13;0.13;;;;;;;;;;4928370;29;20131;-67
2023/04/28 13:41:42;;;;;;;0.10;0.10;;;;;;;;;;4936426;29;20433;-67
2023/04/28 13:44:10;;;;;;;0.68;0.32;;;;;;;;;;4936081;29;20497;-67
2023/04/28 13:46:38;;;;;;;0.70;0.40;;;;;;;;;;4938254;29;20536;-67
2023/04/28 13:49:08;;;;;;;0.20;0.20;;;;;;;;;;4933342;29;20055;-67
2023/04/28 13:51:37;;;;;;;0.38;0.20;;;;;;;;;;4939097;29;20110;-68
2023/04/28 13:54:07;;;;;;;0.13;0.13;;;;;;;;;;4931543;29;20055;-67
2023/04/28 13:56:36;;;;;;;0.40;0.30;;;;;;;;;;4932837;28;20516;-68
2023/04/28 13:59:05;;;;;;;0.10;0.10;;;;;;;;;;4933839;29;20094;-68
2023/04/28 14:01:33;;;;;;;0.35;0.35;;;;;;;;;;4928236;29;20416;-68
2023/04/28 14:04:01;;;;;;;0.00;0.00;;;;;;;;;;4928250;29;20065;-68
2023/04/28 14:06:32;;;;;;;0.00;0.00;;;;;;;;;;4926333;29;20087;-68
2023/04/28 14:09:02;;;;;;;0.05;0.05;;;;;;;;;;4924337;29;20060;-69
2023/04/28 14:11:30;;;;;;;0.55;0.30;;;;;;;;;;4931466;29;20055;-68
2023/04/28 14:13:59;;;;;;;0.35;0.30;;;;;;;;;;4929734;29;20047;-68
2023/04/28 14:16:27;;;;;;;3.17;0.10;;;;;;;;;;4933837;28;20047;-68
2023/04/28 14:18:56;;;;;;;0.15;0.15;;;;;;;;;;4935459;29;20051;-68
2023/04/28 14:21:24;;;;;;;0.20;0.20;;;;;;;;;;4936058;29;20058;-68
2023/04/28 14:23:54;;;;;;;0.70;0.30;;;;;;;;;;4928471;29;20737;-67
2023/04/28 14:26:22;;;;;;;0.30;0.20;;;;;;;;;;4931399;29;20062;-68
2023/04/28 14:28:51;;;;;;;0.20;0.20;;;;;;;;;;4930001;29;20044;-67
2023/04/28 14:31:19;;;;;;;0.28;0.20;;;;;;;;;;4932647;29;20050;-68
2023/04/28 14:33:47;;;;;;;0.25;0.25;;;;;;;;;;4929891;29;20087;-67
2023/04/28 14:36:16;;;;;;;0.10;0.10;;;;;;;;;;4933486;29;20075;-68
2023/04/28 14:38:44;;;;;;;0.10;0.10;;;;;;;;;;4934041;29;20492;-67
2023/04/28 14:41:14;;;;;;;0.15;0.10;;;;;;;;;;4929039;29;20436;-68
2023/04/28 14:43:43;;;;;;;0.20;0.20;;;;;;;;;;4924749;29;20109;-68
2023/04/28 14:46:12;;;;;;;0.10;0.10;;;;;;;;;;4936067;28;20058;-68
2023/04/28 14:48:40;;;;;;;0.80;0.13;;;;;;;;;;4933138;29;20047;-68
2023/04/28 14:51:09;;;;;;;0.70;0.20;;;;;;;;;;4934624;29;20135;-68
2023/04/28 14:53:37;;;;;;;0.10;0.10;;;;;;;;;;4928268;29;20671;-69
2023/04/28 14:56:07;;;;;;;0.60;0.20;;;;;;;;;;4931393;29;20052;-69
2023/04/28 14:58:48;;;;;;;1.20;0.20;;;;;;;;;;4933785;29;20106;-70